createdAt,value
2017-07-05T00:00:14.692Z,11.07
2017-07-05T00:02:42.264Z,12.40
2017-07-05T00:05:09.850Z,10.23
2017-07-05T00:07:38.191Z,11.70
2017-07-05T00:10:05.774Z,12.63
2017-07-05T00:12:33.360Z,12.80
2017-07-05T00:15:01.723Z,11.10
2017-07-05T00:17:29.307Z,12.47
2017-07-05T00:19:57.660Z,11.60
2017-07-05T00:22:25.230Z,13.30
2017-07-05T00:24:53.574Z,13.20
2017-07-05T00:27:21.147Z,13.00
2017-07-05T00:29:48.735Z,13.20
2017-07-05T00:32:17.091Z,13.20
2017-07-05T00:34:44.681Z,12.97
2017-07-05T00:37:13.015Z,14.37
2017-07-05T00:39:40.616Z,12.13
2017-07-05T00:42:09.087Z,13.40
2017-07-05T00:44:36.760Z,14.20
2017-07-05T00:47:04.365Z,13.57
2017-07-05T00:49:31.990Z,13.57
2017-07-05T00:51:59.562Z,15.97
2017-07-05T00:54:27.906Z,15.93
2017-07-05T00:56:55.499Z,13.20
2017-07-05T00:59:23.839Z,15.67
2017-07-05T01:01:51.407Z,13.90
2017-07-05T01:04:18.990Z,16.20
2017-07-05T01:06:46.559Z,13.20
2017-07-05T01:09:14.151Z,16.10
2017-07-05T01:11:41.710Z,15.27
2017-07-05T01:14:09.286Z,14.70
2017-07-05T01:16:36.878Z,15.20
2017-07-05T01:19:04.438Z,15.80
2017-07-05T01:21:32.038Z,14.50
2017-07-05T01:23:59.657Z,13.43
2017-07-05T01:26:27.226Z,13.27
2017-07-05T01:28:54.815Z,14.83
2017-07-05T01:31:22.365Z,16.00
2017-07-05T01:33:49.964Z,13.90
2017-07-05T01:36:17.665Z,14.60
2017-07-05T01:38:45.238Z,14.13
2017-07-05T01:41:12.811Z,14.30
2017-07-05T01:43:40.513Z,15.13
2017-07-05T01:46:08.862Z,13.70
2017-07-05T01:48:36.538Z,13.00
2017-07-05T01:51:04.145Z,13.57
2017-07-05T01:53:31.786Z,14.00
2017-07-05T01:56:00.130Z,12.93
2017-07-05T01:58:27.798Z,14.73
2017-07-05T02:00:55.370Z,14.33
2017-07-05T02:03:23.141Z,14.30
2017-07-05T02:05:51.590Z,14.70
2017-07-05T02:08:19.183Z,15.80
2017-07-05T02:10:46.748Z,13.50
2017-07-05T02:13:14.323Z,14.37
2017-07-05T02:15:41.912Z,13.23
2017-07-05T02:18:09.511Z,13.50
2017-07-05T02:20:37.235Z,15.30
2017-07-05T02:23:04.819Z,14.97
2017-07-05T02:25:32.390Z,13.03
2017-07-05T02:27:59.989Z,12.20
2017-07-05T02:30:28.335Z,12.97
2017-07-05T02:32:55.907Z,11.73
2017-07-05T02:35:23.480Z,12.20
2017-07-05T02:37:51.103Z,11.23
2017-07-05T02:40:18.665Z,10.07
2017-07-05T02:42:46.248Z,12.10
2017-07-05T02:45:13.829Z,11.20
2017-07-05T02:47:41.414Z,11.60
2017-07-05T02:50:09.784Z,10.70
2017-07-05T02:52:38.147Z,12.60
2017-07-05T02:55:05.710Z,10.23
2017-07-05T02:57:33.290Z,11.20
2017-07-05T03:00:00.854Z,11.77
2017-07-05T03:02:28.551Z,11.00
2017-07-05T03:04:56.123Z,10.60
2017-07-05T03:07:23.758Z,10.70
2017-07-05T03:09:51.523Z,10.60
2017-07-05T03:12:19.071Z,9.67
2017-07-05T03:14:46.659Z,11.17
2017-07-05T03:17:14.236Z,9.80
2017-07-05T03:19:42.818Z,10.17
2017-07-05T03:22:10.381Z,10.00
2017-07-05T03:24:37.955Z,10.10
2017-07-05T03:27:06.402Z,11.50
2017-07-05T03:29:33.957Z,12.23
2017-07-05T03:32:01.533Z,10.50
2017-07-05T03:34:29.098Z,10.00
2017-07-05T03:36:56.660Z,11.10
2017-07-05T03:39:24.254Z,10.90
2017-07-05T03:41:52.618Z,11.10
2017-07-05T03:44:20.209Z,13.10
2017-07-05T03:46:47.801Z,11.97
2017-07-05T03:49:15.404Z,12.37
2017-07-05T03:51:42.976Z,12.40
2017-07-05T03:54:11.315Z,11.67
2017-07-05T03:56:39.002Z,12.80
2017-07-05T03:59:06.617Z,13.27
2017-07-05T04:01:34.198Z,13.30
2017-07-05T04:04:01.782Z,15.00
2017-07-05T04:06:29.346Z,12.60
2017-07-05T04:08:56.942Z,13.20
2017-07-05T04:11:24.530Z,15.07
2017-07-05T04:13:52.165Z,12.50
2017-07-05T04:16:20.490Z,13.33
2017-07-05T04:18:48.068Z,12.57
2017-07-05T04:21:15.649Z,13.63
2017-07-05T04:23:43.205Z,13.70
2017-07-05T04:26:10.787Z,14.40
2017-07-05T04:28:39.120Z,14.40
2017-07-05T04:31:06.688Z,15.00
2017-07-05T04:33:34.261Z,14.60
2017-07-05T04:36:02.708Z,14.60
2017-07-05T04:38:30.307Z,15.27
2017-07-05T04:40:57.874Z,15.27
2017-07-05T04:43:25.445Z,16.17
2017-07-05T04:45:53.015Z,15.80
2017-07-05T04:48:21.362Z,14.77
2017-07-05T04:50:49.013Z,15.47
2017-07-05T04:53:16.575Z,13.50
2017-07-05T04:55:44.164Z,14.27
2017-07-05T04:58:11.732Z,13.07
2017-07-05T05:00:39.310Z,13.20
2017-07-05T05:03:07.699Z,12.80
2017-07-05T05:05:36.028Z,13.70
2017-07-05T05:08:03.607Z,12.43
2017-07-05T05:10:31.192Z,13.07
2017-07-05T05:12:59.526Z,12.00
2017-07-05T05:15:27.111Z,13.07
2017-07-05T05:17:54.749Z,12.77
2017-07-05T05:20:22.313Z,13.07
2017-07-05T05:22:49.904Z,11.77
2017-07-05T05:25:18.447Z,10.43
2017-07-05T05:27:46.113Z,12.20
2017-07-05T05:30:13.727Z,10.63
2017-07-05T05:32:41.295Z,11.70
2017-07-05T05:35:09.652Z,10.40
2017-07-05T05:37:37.217Z,10.67
2017-07-05T05:40:04.774Z,10.70
2017-07-05T05:42:32.348Z,11.43
2017-07-05T05:44:59.917Z,11.37
2017-07-05T05:47:27.512Z,11.60
2017-07-05T05:49:55.082Z,10.60
2017-07-05T05:52:22.638Z,10.53
2017-07-05T05:54:50.219Z,10.30
2017-07-05T05:57:17.793Z,11.67
2017-07-05T05:59:46.435Z,10.50
2017-07-05T06:02:14.794Z,11.70
2017-07-05T06:04:42.935Z,11.10
2017-07-05T06:07:10.500Z,11.23
2017-07-05T06:09:38.177Z,10.80
2017-07-05T06:12:05.746Z,9.60
2017-07-05T06:14:33.311Z,9.90
2017-07-05T06:17:00.884Z,10.17
2017-07-05T06:19:28.459Z,10.10
2017-07-05T06:21:56.785Z,11.13
2017-07-05T06:24:24.384Z,10.43
2017-07-05T06:26:52.027Z,10.10
2017-07-05T06:29:19.620Z,10.67
2017-07-05T06:31:48.002Z,10.50
2017-07-05T06:34:15.561Z,11.30
2017-07-05T06:36:43.138Z,10.40
2017-07-05T06:39:11.550Z,10.77
2017-07-05T06:41:39.143Z,11.70
2017-07-05T06:44:06.744Z,11.33
2017-07-05T06:46:35.079Z,9.70
2017-07-05T06:49:02.719Z,10.40
2017-07-05T06:51:30.282Z,9.97
2017-07-05T06:53:57.842Z,10.60
2017-07-05T06:56:25.421Z,11.37
2017-07-05T06:58:53.116Z,10.13
2017-07-05T07:01:20.767Z,10.90
2017-07-05T07:03:48.350Z,10.50
2017-07-05T07:06:15.915Z,10.77
2017-07-05T07:08:43.481Z,9.47
2017-07-05T07:11:11.830Z,10.67
2017-07-05T07:13:39.738Z,9.43
2017-07-05T07:16:08.068Z,8.33
2017-07-05T07:18:35.614Z,9.57
2017-07-05T07:21:03.202Z,9.80
2017-07-05T07:23:30.781Z,9.13
2017-07-05T07:25:58.374Z,8.67
2017-07-05T07:28:26.715Z,9.30
2017-07-05T07:30:54.357Z,8.37
2017-07-05T07:33:21.934Z,9.37
2017-07-05T07:35:49.498Z,8.50
2017-07-05T07:38:17.143Z,8.00
2017-07-05T07:40:44.709Z,7.50
2017-07-05T07:43:12.315Z,6.83
2017-07-05T07:45:39.899Z,7.97
2017-07-05T07:48:07.476Z,7.43
2017-07-05T07:50:35.051Z,6.33
2017-07-05T07:53:02.625Z,7.10
2017-07-05T07:55:30.179Z,7.70
2017-07-05T07:57:57.757Z,8.20
2017-07-05T08:00:25.281Z,6.40
2017-07-05T08:02:52.870Z,7.43
2017-07-05T08:05:20.434Z,6.30
2017-07-05T08:07:47.997Z,6.60
2017-07-05T08:10:15.670Z,5.27
2017-07-05T08:12:43.246Z,5.60
2017-07-05T08:15:10.806Z,4.80
2017-07-05T08:17:38.385Z,5.70
2017-07-05T08:20:05.958Z,6.10
2017-07-05T08:22:33.575Z,5.77
2017-07-05T08:25:01.131Z,5.20
2017-07-05T08:27:28.690Z,5.20
2017-07-05T08:29:56.272Z,4.93
2017-07-05T08:32:23.852Z,4.60
2017-07-05T08:34:51.424Z,5.10
2017-07-05T08:37:18.993Z,5.33
2017-07-05T08:39:46.559Z,4.90
2017-07-05T08:42:14.119Z,4.27
2017-07-05T08:44:41.759Z,3.50
2017-07-05T08:47:09.315Z,3.97
2017-07-05T08:49:36.905Z,3.27
2017-07-05T08:52:04.591Z,3.60
2017-07-05T08:54:32.161Z,3.30
2017-07-05T08:56:59.734Z,3.13
2017-07-05T08:59:27.298Z,3.10
2017-07-05T09:01:54.858Z,3.37
2017-07-05T09:04:22.436Z,4.17
2017-07-05T09:06:49.984Z,4.03
2017-07-05T09:09:18.621Z,3.80
2017-07-05T09:11:46.179Z,3.50
2017-07-05T09:14:13.739Z,4.50
2017-07-05T09:16:41.304Z,4.37
2017-07-05T09:19:08.859Z,2.90
2017-07-05T09:21:36.440Z,4.37
2017-07-05T09:24:04.019Z,3.70
2017-07-05T09:26:31.570Z,4.30
2017-07-05T09:28:59.135Z,3.93
2017-07-05T09:31:26.732Z,3.57
2017-07-05T09:33:54.312Z,3.77
2017-07-05T09:36:21.978Z,3.90
2017-07-05T09:38:49.563Z,4.00
2017-07-05T09:41:17.253Z,3.50
2017-07-05T09:43:44.908Z,4.00
2017-07-05T09:46:12.499Z,3.80
2017-07-05T09:48:40.857Z,3.83
2017-07-05T09:51:08.416Z,4.13
2017-07-05T09:53:36.009Z,3.40
2017-07-05T09:56:04.368Z,4.30
2017-07-05T09:58:31.937Z,4.10
2017-07-05T10:00:59.556Z,3.90
2017-07-05T10:03:27.139Z,4.17
2017-07-05T10:05:54.728Z,4.33
2017-07-05T10:08:22.299Z,3.87
2017-07-05T10:10:50.650Z,3.70
2017-07-05T10:13:18.224Z,3.97
2017-07-05T10:15:45.794Z,4.53
2017-07-05T10:18:13.402Z,4.80
2017-07-05T10:20:41.043Z,4.60
2017-07-05T10:23:09.360Z,4.40
2017-07-05T10:25:36.927Z,4.67
2017-07-05T10:28:04.607Z,4.10
2017-07-05T10:30:32.160Z,3.60
2017-07-05T10:32:59.728Z,4.43
2017-07-05T10:35:27.297Z,4.10
2017-07-05T10:37:54.864Z,4.67
2017-07-05T10:40:22.458Z,3.90
2017-07-05T10:42:50.771Z,3.63
2017-07-05T10:45:18.355Z,3.37
2017-07-05T10:47:46.842Z,3.67
2017-07-05T10:50:14.534Z,3.90
2017-07-05T10:52:42.092Z,4.10
2017-07-05T10:55:09.670Z,4.13
2017-07-05T10:57:38.000Z,3.93
2017-07-05T11:00:05.655Z,4.03
2017-07-05T11:02:33.247Z,3.20
2017-07-05T11:05:00.819Z,4.03
2017-07-05T11:07:28.391Z,4.10
2017-07-05T11:09:55.951Z,4.67
2017-07-05T11:12:23.578Z,4.30
2017-07-05T11:14:51.136Z,4.33
2017-07-05T11:17:18.744Z,3.77
2017-07-05T11:19:47.113Z,3.97
2017-07-05T11:22:14.681Z,3.60
2017-07-05T11:24:42.263Z,3.70
2017-07-05T11:27:10.626Z,3.57
2017-07-05T11:29:38.175Z,3.27
2017-07-05T11:32:05.767Z,3.53
2017-07-05T11:34:34.159Z,2.80
2017-07-05T11:37:02.485Z,3.57
2017-07-05T11:39:30.046Z,2.87
2017-07-05T11:41:57.623Z,2.60
2017-07-05T11:44:25.182Z,3.20
2017-07-05T11:46:52.835Z,3.33
2017-07-05T11:49:20.404Z,3.20
2017-07-05T11:51:48.155Z,3.50
2017-07-05T11:54:15.737Z,3.43
2017-07-05T11:56:43.289Z,3.83
2017-07-05T11:59:10.867Z,3.50
2017-07-05T12:01:38.448Z,3.53
2017-07-05T12:04:06.019Z,3.80
2017-07-05T12:06:34.338Z,3.90
2017-07-05T12:09:01.943Z,3.43
2017-07-05T12:11:29.515Z,3.33
2017-07-05T12:13:57.088Z,3.17
2017-07-05T12:16:25.428Z,3.30
2017-07-05T12:18:53.006Z,2.80
2017-07-05T12:21:20.592Z,2.83
2017-07-05T12:23:48.174Z,3.43
2017-07-05T12:26:16.506Z,3.53
2017-07-05T12:28:44.095Z,3.43
2017-07-05T12:31:12.421Z,2.97
2017-07-05T12:33:40.004Z,2.97
2017-07-05T12:36:07.599Z,3.20
2017-07-05T12:38:35.193Z,3.27
2017-07-05T12:41:02.817Z,3.60
2017-07-05T12:43:30.370Z,3.13
2017-07-05T12:45:58.006Z,2.90
2017-07-05T12:48:25.579Z,3.20
2017-07-05T12:50:53.167Z,3.23
2017-07-05T12:53:20.727Z,2.90
2017-07-05T12:55:48.301Z,2.93
2017-07-05T12:58:15.954Z,2.57
2017-07-05T13:00:43.547Z,3.40
2017-07-05T13:03:11.904Z,3.00
2017-07-05T13:05:39.541Z,3.17
2017-07-05T13:08:07.132Z,3.20
2017-07-05T13:10:34.744Z,3.23
2017-07-05T13:13:02.329Z,2.90
2017-07-05T13:15:29.923Z,2.83
2017-07-05T13:17:57.508Z,3.07
2017-07-05T13:20:26.935Z,3.23
2017-07-05T13:22:54.526Z,3.23
2017-07-05T13:25:22.173Z,3.37
2017-07-05T13:27:49.857Z,3.70
2017-07-05T13:30:17.437Z,3.10
2017-07-05T13:32:45.040Z,2.70
2017-07-05T13:35:13.362Z,2.83
2017-07-05T13:37:41.031Z,3.83
2017-07-05T13:40:08.626Z,3.67
2017-07-05T13:42:36.203Z,3.60
2017-07-05T13:45:04.569Z,3.37
2017-07-05T13:47:32.125Z,3.87
2017-07-05T13:49:59.700Z,3.57
2017-07-05T13:52:27.265Z,3.00
2017-07-05T13:54:55.610Z,3.20
2017-07-05T13:57:23.202Z,3.00
2017-07-05T13:59:50.814Z,3.30
2017-07-05T14:02:18.410Z,3.70
2017-07-05T14:04:46.007Z,3.10
2017-07-05T14:07:14.345Z,4.10
2017-07-05T14:09:41.926Z,2.90
2017-07-05T14:12:09.500Z,3.40
2017-07-05T14:14:37.075Z,3.53
2017-07-05T14:17:05.423Z,2.90
2017-07-05T14:19:32.983Z,3.40
2017-07-05T14:22:00.583Z,3.33
2017-07-05T14:24:28.917Z,3.57
2017-07-05T14:26:56.476Z,4.03
2017-07-05T14:29:24.063Z,2.87
2017-07-05T14:31:51.603Z,3.50
2017-07-05T14:34:19.205Z,3.63
2017-07-05T14:36:46.795Z,3.03
2017-07-05T14:39:14.372Z,3.23
2017-07-05T14:41:41.950Z,3.10
2017-07-05T14:44:09.513Z,3.57
2017-07-05T14:46:37.074Z,3.00
2017-07-05T14:49:04.653Z,3.00
2017-07-05T14:51:32.219Z,4.07
2017-07-05T14:53:59.806Z,3.10
2017-07-05T14:56:27.367Z,4.03
2017-07-05T14:58:54.945Z,3.73
2017-07-05T15:01:23.287Z,3.80
2017-07-05T15:03:50.838Z,3.30
2017-07-05T15:06:18.433Z,3.87
2017-07-05T15:08:46.003Z,3.43
2017-07-05T15:11:13.639Z,3.27
2017-07-05T15:13:41.278Z,3.23
2017-07-05T15:16:08.861Z,3.43
2017-07-05T15:18:36.523Z,2.97
2017-07-05T15:21:04.092Z,3.33
2017-07-05T15:23:31.667Z,3.60
2017-07-05T15:25:59.235Z,3.37
2017-07-05T15:28:26.797Z,4.00
2017-07-05T15:30:54.504Z,3.43
2017-07-05T15:33:22.063Z,4.20
2017-07-05T15:35:49.640Z,2.97
2017-07-05T15:38:17.211Z,3.73
2017-07-05T15:40:44.773Z,3.60
2017-07-05T15:43:12.351Z,3.10
2017-07-05T15:45:39.919Z,3.33
2017-07-05T15:48:07.479Z,4.00
2017-07-05T15:50:35.074Z,4.07
2017-07-05T15:53:02.636Z,3.27
2017-07-05T15:55:30.212Z,3.20
2017-07-05T15:57:58.259Z,3.70
2017-07-05T16:00:25.867Z,3.60
2017-07-05T16:02:53.430Z,3.90
2017-07-05T16:05:21.025Z,3.90
2017-07-05T16:07:48.633Z,3.90
2017-07-05T16:10:16.186Z,3.87
2017-07-05T16:12:44.722Z,3.53
2017-07-05T16:15:12.350Z,3.93
2017-07-05T16:17:40.702Z,3.40
2017-07-05T16:20:08.273Z,3.80
2017-07-05T16:22:35.816Z,3.50
2017-07-05T16:25:03.418Z,3.87
2017-07-05T16:27:31.764Z,5.00
2017-07-05T16:29:59.348Z,4.70
2017-07-05T16:32:26.977Z,4.40
2017-07-05T16:34:54.555Z,3.90
2017-07-05T16:37:22.155Z,4.60
2017-07-05T16:39:50.472Z,5.70
2017-07-05T16:42:18.071Z,4.77
2017-07-05T16:44:45.652Z,5.70
2017-07-05T16:47:13.221Z,4.70
2017-07-05T16:49:40.831Z,4.40
2017-07-05T16:52:08.381Z,4.30
2017-07-05T16:54:35.959Z,4.77
2017-07-05T16:57:03.542Z,4.47
2017-07-05T16:59:31.194Z,4.67
2017-07-05T17:01:58.786Z,4.53
2017-07-05T17:04:26.368Z,4.23
2017-07-05T17:06:53.935Z,4.63
2017-07-05T17:09:21.495Z,4.33
2017-07-05T17:11:49.070Z,4.40
2017-07-05T17:14:17.397Z,4.80
2017-07-05T17:16:44.997Z,3.90
2017-07-05T17:19:12.659Z,4.27
2017-07-05T17:21:40.253Z,4.27
2017-07-05T17:24:08.601Z,4.50
2017-07-05T17:26:36.256Z,4.37
2017-07-05T17:29:04.091Z,4.07
2017-07-05T17:31:31.671Z,4.40
2017-07-05T17:33:59.256Z,4.37
2017-07-05T17:36:26.831Z,4.20
2017-07-05T17:38:54.486Z,4.20
2017-07-05T17:41:22.111Z,3.83
2017-07-05T17:43:50.611Z,4.07
2017-07-05T17:46:18.215Z,4.30
2017-07-05T17:48:46.561Z,4.00
2017-07-05T17:51:14.139Z,4.20
2017-07-05T17:53:41.715Z,3.60
2017-07-05T17:56:09.329Z,4.33
2017-07-05T17:58:36.939Z,4.50
2017-07-05T18:01:04.510Z,4.10
2017-07-05T18:03:32.886Z,4.30
2017-07-05T18:06:00.435Z,4.20
2017-07-05T18:08:28.019Z,3.53
2017-07-05T18:10:56.349Z,3.70
2017-07-05T18:13:23.907Z,3.90
2017-07-05T18:15:51.503Z,3.83
2017-07-05T18:18:19.080Z,4.43
2017-07-05T18:20:46.674Z,4.53
2017-07-05T18:23:14.249Z,4.10
2017-07-05T18:25:41.821Z,4.80
2017-07-05T18:28:09.484Z,3.87
2017-07-05T18:30:37.042Z,4.17
2017-07-05T18:33:04.619Z,4.50
2017-07-05T18:35:32.193Z,4.10
2017-07-05T18:37:59.780Z,4.10
2017-07-05T18:40:27.397Z,4.03
2017-07-05T18:42:54.983Z,4.10
2017-07-05T18:45:22.575Z,4.30
2017-07-05T18:47:50.135Z,4.90
2017-07-05T18:50:17.739Z,5.50
2017-07-05T18:52:45.333Z,5.47
2017-07-05T18:55:13.029Z,4.40
2017-07-05T18:57:40.596Z,5.77
2017-07-05T19:00:08.158Z,7.17
2017-07-05T19:02:36.585Z,6.30
2017-07-05T19:05:04.148Z,6.80
2017-07-05T19:07:31.788Z,6.57
2017-07-05T19:10:00.136Z,6.87
2017-07-05T19:12:27.707Z,6.23
2017-07-05T19:14:55.272Z,5.77
2017-07-05T19:17:22.818Z,6.13
2017-07-05T19:19:50.423Z,5.70
2017-07-05T19:22:18.008Z,6.00
2017-07-05T19:24:45.695Z,5.83
2017-07-05T19:27:13.262Z,5.50
2017-07-05T19:29:40.877Z,6.90
2017-07-05T19:32:08.564Z,6.17
2017-07-05T19:34:36.328Z,5.60
2017-07-05T19:37:03.901Z,5.80
2017-07-05T19:39:32.328Z,6.43
2017-07-05T19:42:00.052Z,5.77
2017-07-05T19:44:27.725Z,6.30
2017-07-05T19:46:55.374Z,5.70
2017-07-05T19:49:22.943Z,5.83
2017-07-05T19:51:50.520Z,6.17
2017-07-05T19:54:18.107Z,7.23
2017-07-05T19:56:45.687Z,6.77
2017-07-05T19:59:14.050Z,5.47
2017-07-05T20:01:42.396Z,6.13
2017-07-05T20:04:09.985Z,6.57
2017-07-05T20:06:37.565Z,6.80
2017-07-05T20:09:05.916Z,6.70
2017-07-05T20:11:33.520Z,8.10
2017-07-05T20:14:02.300Z,7.40
2017-07-05T20:16:30.644Z,7.90
2017-07-05T20:18:58.339Z,6.63
2017-07-05T20:21:26.711Z,8.10
2017-07-05T20:23:54.293Z,7.77
2017-07-05T20:26:22.660Z,9.20
2017-07-05T20:28:50.358Z,8.60
2017-07-05T20:31:17.994Z,7.40
2017-07-05T20:33:45.588Z,8.00
2017-07-05T20:36:14.028Z,7.60
2017-07-05T20:38:41.714Z,6.33
2017-07-05T20:41:10.186Z,8.20
2017-07-05T20:43:37.799Z,9.23
2017-07-05T20:46:05.553Z,7.43
2017-07-05T20:48:33.327Z,8.80
2017-07-05T20:51:01.067Z,12.80
2017-07-05T20:53:28.666Z,11.40
2017-07-05T20:55:56.318Z,10.87
2017-07-05T20:58:23.908Z,11.80
2017-07-05T21:00:51.503Z,12.33
2017-07-05T21:03:20.107Z,11.77
2017-07-05T21:05:47.861Z,9.33
2017-07-05T21:08:16.202Z,11.23
2017-07-05T21:10:43.883Z,11.80
2017-07-05T21:13:11.479Z,9.70
2017-07-05T21:15:40.389Z,10.70
2017-07-05T21:18:08.012Z,10.37
2017-07-05T21:20:35.687Z,11.83
2017-07-05T21:23:03.362Z,10.00
2017-07-05T21:25:31.744Z,10.20
2017-07-05T21:27:59.412Z,10.93
2017-07-05T21:30:27.770Z,10.47
2017-07-05T21:32:55.389Z,10.33
2017-07-05T21:35:23.009Z,10.37
2017-07-05T21:37:50.633Z,9.87
2017-07-05T21:40:18.559Z,9.87
2017-07-05T21:42:47.133Z,10.50
2017-07-05T21:45:15.486Z,12.20
2017-07-05T21:47:43.347Z,10.90
2017-07-05T21:50:11.079Z,11.20
2017-07-05T21:52:38.696Z,11.10
2017-07-05T21:55:06.332Z,10.57
2017-07-05T21:57:34.734Z,11.90
2017-07-05T22:00:02.716Z,11.37
2017-07-05T22:02:30.325Z,11.40
2017-07-05T22:04:58.021Z,11.47
2017-07-05T22:07:25.642Z,11.43
2017-07-05T22:09:53.279Z,11.93
2017-07-05T22:12:21.657Z,13.47
2017-07-05T22:14:49.999Z,11.40
2017-07-05T22:17:17.590Z,12.13
2017-07-05T22:19:45.186Z,12.27
2017-07-05T22:22:12.826Z,11.57
2017-07-05T22:24:41.305Z,12.80
2017-07-05T22:27:09.025Z,12.43
2017-07-05T22:29:36.611Z,13.57
2017-07-05T22:32:04.246Z,13.63
2017-07-05T22:34:31.817Z,13.97
2017-07-05T22:36:59.427Z,12.90
2017-07-05T22:39:27.783Z,13.33
2017-07-05T22:41:55.443Z,12.60
2017-07-05T22:44:23.022Z,12.97
2017-07-05T22:46:50.646Z,12.90
2017-07-05T22:49:18.284Z,12.73
2017-07-05T22:51:45.942Z,13.40
2017-07-05T22:54:13.514Z,14.87
2017-07-05T22:56:41.140Z,14.57
2017-07-05T22:59:08.699Z,13.83
2017-07-05T23:01:36.285Z,14.70
2017-07-05T23:04:04.636Z,13.53
2017-07-05T23:06:32.239Z,15.20
2017-07-05T23:08:59.810Z,14.23
2017-07-05T23:11:27.419Z,13.90
2017-07-05T23:13:55.009Z,15.53
2017-07-05T23:16:23.361Z,15.77
2017-07-05T23:18:50.945Z,16.40
2017-07-05T23:21:18.469Z,14.70
2017-07-05T23:23:46.022Z,15.43
2017-07-05T23:26:13.601Z,16.70
2017-07-05T23:28:41.226Z,16.87
2017-07-05T23:31:08.844Z,17.70
2017-07-05T23:33:36.403Z,16.40
2017-07-05T23:36:04.003Z,15.50
2017-07-05T23:38:31.570Z,17.90
2017-07-05T23:40:59.140Z,17.20
2017-07-05T23:43:26.709Z,16.87
2017-07-05T23:45:54.275Z,17.00
2017-07-05T23:48:21.908Z,17.67
2017-07-05T23:50:50.243Z,15.50
2017-07-05T23:53:17.840Z,17.00
2017-07-05T23:55:46.174Z,16.83
2017-07-05T23:58:13.742Z,16.27
